Tofino Long Beach Airport Tofino CA
ICAO: CYAZ
IATA: YAZ
Category: Medium
Scheduled Services: Yes

Elevation: 80 ft
TransAlt. 9000 ft.

Airport Communications:
VANCOUVER CNTR:132.9
PACIFIC RDO:123.25

CYAZ Zoom In..

Runways:

(A) RW 07 length 4999 ft width 150 ft
---- / hdg 71

(B) RW 11 length 4997 ft width 100 ft
---- / hdg 107

(C) RW 16 length 5000 ft width 100 ft
---- / hdg 156

(D) RW 25 length 4999 ft width 150 ft
---- / hdg 251

(E) RW 29 length 4997 ft width 100 ft
---- / hdg 287

(F) RW 34 length 5000 ft width 100 ft
---- / hdg 336

Location; CYAZ
Day. 23 / Time. 22.00 Zulu
* Altimeter: 29.85
* Temperature: 15° c. 59°f.
* Wind from: 280° Speed 16 kn with Gusts up to 22 kn.
Dewpoint: 12° c.
Visibility: 15 Statute Miles.
Clouds: Broken 800 ft.

CYAZ 232200Z 28016G22KT 15SM BKN008 15/12 A2985 RMK ST5 SLP111 DENSITY ALT 200FT


Wind From 280°
Speed 16 kn.

 
 
jpsmedia.com for Web Design SOUNDCLOUD worldairports.se 2018   terms of use